Wetterdaten: aktuell Freitag, 24.02.2017 22:40
Datum Zeit Temp. A. Feuchte A. Luftdruck Regen Wind Richtung Richtung Taupunkt Windchill Windben
24.02.2017 22:40 2,0 C 86 % 1013 hPa 0,0 l/m 13,3 km/h (3 Bft) W-NW 292 -0,1 C -3,5 C 15,5 km/h (3 Bft)
24.02.2017 21:40 2,2 C 85 % 1012 hPa 0,0 l/m 11,5 km/h (2 Bft) W-NW 292 -0,1 C -2,1 C 13,3 km/h (3 Bft)
24.02.2017 20:40 2,5 C 82 % 1012 hPa 0,0 l/m 10,8 km/h (2 Bft) W-NW 292 -0,3 C -1,3 C 13,3 km/h (3 Bft)
24.02.2017 19:40 3,1 C 80 % 1011 hPa 0,0 l/m 16,9 km/h (3 Bft) NW 315 -0,0 C -4,2 C 19,8 km/h (3 Bft)
24.02.2017 18:40 3,5 C 79 % 1010 hPa 0,0 l/m 14,4 km/h (3 Bft) N-NW 337 0,2 C -2,4 C 17,6 km/h (3 Bft)
24.02.2017 17:40 5,7 C 59 % 1009 hPa 0,0 l/m 22,7 km/h (4 Bft) N 360 -1,7 C -3,2 C 22,7 km/h (4 Bft)
24.02.2017 16:40 5,7 C 59 % 1008 hPa 0,0 l/m 22,7 km/h (4 Bft) N 360 -1,7 C -3,2 C 22,7 km/h (4 Bft)
24.02.2017 15:40 5,9 C 62 % 1007 hPa 0,0 l/m 16,9 km/h (3 Bft) W-NW 292 -0,8 C -0,7 C 24,1 km/h (4 Bft)
24.02.2017 14:40 7,6 C 68 % 1007 hPa 0,0 l/m 11,2 km/h (2 Bft) N 360 2,1 C 4,2 C 11,2 km/h (2 Bft)
24.02.2017 13:40 7,6 C 68 % 1007 hPa 0,0 l/m 11,2 km/h (2 Bft) N 360 2,1 C 4,2 C 11,2 km/h (2 Bft)
24.02.2017 12:40 7,6 C 68 % 1006 hPa 0,0 l/m 11,2 km/h (2 Bft) N 360 2,1 C 4,2 C 11,2 km/h (2 Bft)
24.02.2017 11:40 7,2 C 73 % 1005 hPa 0,0 l/m 14,0 km/h (3 Bft) W-NW 292 2,7 C 2,2 C 15,5 km/h (3 Bft)
24.02.2017 10:40 5,1 C 82 % 1004 hPa 0,0 l/m 11,2 km/h (2 Bft) NW 315 2,3 C 1,4 C 13,3 km/h (3 Bft)
24.02.2017 09:40 3,2 C 85 % 1002 hPa 0,0 l/m 8,6 km/h (2 Bft) N 360 0,9 C 1,2 C 8,6 km/h (2 Bft)
24.02.2017 08:40 3,2 C 86 % 1000 hPa 0,3 l/m 7,9 km/h (2 Bft) N-NO 22 1,1 C 1,8 C 11,2 km/h (2 Bft)
24.02.2017 07:40 3,6 C 90 % 997 hPa 0,0 l/m 11,9 km/h (2 Bft) NW 315 2,1 C -0,8 C 19,8 km/h (3 Bft)
24.02.2017 06:40 3,1 C 90 % 995 hPa 0,3 l/m 24,1 km/h (4 Bft) W-NW 292 1,6 C -7,2 C 26,3 km/h (4 Bft)
24.02.2017 05:40 2,6 C 91 % 993 hPa 0,3 l/m 25,2 km/h (4 Bft) NW 315 1,3 C -8,3 C 28,8 km/h (4 Bft)
24.02.2017 04:40 3,2 C 90 % 990 hPa 0,0 l/m 39,2 km/h (6 Bft) N 360 1,7 C -11,0 C 39,2 km/h (6 Bft)
24.02.2017 03:40 3,2 C 90 % 987 hPa 0,3 l/m 39,2 km/h (6 Bft) NW 315 1,7 C -11,0 C 50,8 km/h (7 Bft)
24.02.2017 02:40 4,5 C 93 % 982 hPa 0,5 l/m 35,3 km/h (5 Bft) NW 315 3,5 C -8,3 C 39,6 km/h (6 Bft)
24.02.2017 01:40 5,7 C 94 % 981 hPa 1,5 l/m 17,6 km/h (3 Bft) W-SW 247 4,8 C -1,3 C 19,8 km/h (3 Bft)
24.02.2017 00:40 5,4 C 93 % 980 hPa 0,3 l/m 15,5 km/h (3 Bft) W-NW 292 4,4 C -0,7 C 17,6 km/h (3 Bft)
23.02.2017 23:40 5,2 C 93 % 979 hPa 0,5 l/m 20,2 km/h (4 Bft) W 270 4,2 C -3,0 C 28,8 km/h (4 Bft)
23.02.2017 23:00 5,1 C 93 % 978 hPa 0,0 l/m 26,3 km/h (4 Bft) W 270 4,1 C -5,2 C 48,6 km/h (6 Bft)
_ Min-Zeit 22:20 15:30 23:00 - 10:20 - - 15:30 03:40 10:20
Minimum _ 2,0 C 56 % 978 hPa - 5,4 km/h (1 Bft) - - -2,1 C -11,0 C 6,5 km/h (2 Bft)
_ Max-Zeit 12:00 01:00 22:30 01:10 03:40 - - 01:40 11:10 03:40
Maximum _ 7,6 C 94 % 1013 hPa 0,5 l/m 39,2 km/h
NW (6 Bft)
- - 4,8 C 5,0 C 50,8 km/h
NW (7 Bft)
Durchschnitt _ 4,6 C 82 % 998 hPa #3,9 l/m 17,3 km/h (3 Bft) N - 1,7 C -1,9 C 22,2 km/h (4 Bft)